Ogdensburg, Wisconsin
Current Conditions -  °F | °C
As of 7:35 PM on Sunday 23 Nov 2014 (Local Time) from KPCZ Reporting Station
Drizzle Drizzle  
Wind Chill: 46°   Ceiling: 200
Heat Index: 46°   Visibility: 0.25mi
Dew Point: 45°   Wind: 0mph
Humidity: 96%   Direction: NA
Pressure: 29.32"   Gusts: NA
Location:  44.45°N, 89.03°W
Report Text: KPCZ 240135Z AUTO 00000KT 1/4SM -DZ OVC002 08/07 A2932 RMK AO2 T00760070
Loading
Personal Weather Stations






























Interactive Weather Map New forecast layout! Learn more

10-Day Weather Forecast

Advertisements
Track Severe Weather on mobile